createdAt,value
2022-09-23T00:01:08.068Z,13.13
2022-09-23T00:03:37.239Z,12.27
2022-09-23T00:06:10.843Z,11.75
2022-09-23T00:08:38.487Z,13.35
2022-09-23T00:11:10.735Z,11.63
2022-09-23T00:13:40.644Z,19.23
2022-09-23T00:16:11.071Z,13.35
2022-09-23T00:18:40.493Z,12.23
2022-09-23T00:21:13.232Z,11.52
2022-09-23T00:23:43.085Z,11.15
2022-09-23T00:26:12.744Z,11.02
2022-09-23T00:28:40.848Z,12.02
2022-09-23T00:31:16.372Z,11.82
2022-09-23T00:33:43.318Z,10.90
2022-09-23T00:36:12.742Z,12.37
2022-09-23T00:38:39.297Z,12.52
2022-09-23T00:41:06.576Z,18.83
2022-09-23T00:43:44.122Z,10.70
2022-09-23T00:46:32.731Z,9.85
2022-09-23T00:49:09.780Z,10.63
2022-09-23T00:51:46.750Z,15.40
2022-09-23T00:54:14.609Z,12.18
2022-09-23T00:56:41.120Z,12.38
2022-09-23T00:59:10.075Z,11.40
2022-09-23T01:01:38.104Z,12.18
2022-09-23T01:04:05.644Z,10.20
2022-09-23T01:09:01.193Z,10.25
2022-09-23T01:11:48.846Z,11.18
2022-09-23T01:14:41.063Z,12.45
2022-09-23T01:17:11.795Z,14.55
2022-09-23T01:20:12.804Z,12.52
2022-09-23T01:22:49.919Z,12.18
2022-09-23T01:25:48.790Z,11.68
2022-09-23T01:28:37.271Z,12.60
2022-09-23T01:31:44.579Z,11.63
2022-09-23T01:34:20.515Z,10.07
2022-09-23T01:36:54.639Z,13.65
2022-09-23T01:39:45.351Z,16.30
2022-09-23T01:42:27.479Z,12.07
2022-09-23T01:45:20.304Z,10.68
2022-09-23T01:48:10.510Z,9.82
2022-09-23T01:50:59.677Z,11.70
2022-09-23T01:53:38.254Z,13.25
2022-09-23T01:56:22.634Z,12.48
2022-09-23T01:59:12.587Z,12.27
2022-09-23T02:02:26.633Z,11.52
2022-09-23T02:05:07.933Z,11.57
2022-09-23T02:07:50.991Z,12.88
2022-09-23T02:10:25.824Z,10.05
2022-09-23T02:12:57.687Z,14.68
2022-09-23T02:15:34.935Z,10.25
2022-09-23T02:18:08.973Z,9.77
2022-09-23T02:20:39.769Z,12.23
2022-09-23T02:23:13.323Z,14.00
2022-09-23T02:26:08.955Z,12.13
2022-09-23T02:29:00.726Z,9.82
2022-09-23T02:31:30.818Z,11.43
2022-09-23T02:34:10.029Z,10.88
2022-09-23T02:37:06.416Z,11.52
2022-09-23T02:39:52.046Z,10.70
2022-09-23T02:42:24.049Z,11.60
2022-09-23T02:44:50.679Z,13.15
2022-09-23T02:47:25.724Z,11.03
2022-09-23T02:49:54.618Z,9.98
2022-09-23T02:52:21.601Z,15.18
2022-09-23T02:54:48.064Z,10.70
2022-09-23T02:57:14.748Z,11.35
2022-09-23T02:59:41.557Z,10.23
2022-09-23T03:02:48.968Z,11.73
2022-09-23T03:05:16.120Z,13.20
2022-09-23T03:08:04.299Z,10.88
2022-09-23T03:11:07.849Z,11.05
2022-09-23T03:13:43.339Z,12.63
2022-09-23T03:17:00.772Z,12.23
2022-09-23T03:20:09.971Z,11.57
2022-09-23T03:23:00.847Z,12.70
2022-09-23T03:25:39.225Z,13.55
2022-09-23T03:28:08.201Z,12.95
2022-09-23T03:30:39.794Z,11.10
2022-09-23T03:33:12.222Z,13.65
2022-09-23T03:36:07.291Z,11.05
2022-09-23T03:38:39.789Z,11.38
2022-09-23T03:41:10.842Z,14.77
2022-09-23T03:43:39.059Z,11.90
2022-09-23T03:46:08.243Z,13.43
2022-09-23T03:48:35.815Z,17.55
2022-09-23T03:53:36.601Z,12.95
2022-09-23T03:56:03.766Z,12.25
2022-09-23T03:58:30.963Z,9.80
2022-09-23T04:00:59.140Z,12.02
2022-09-23T04:03:28.501Z,13.68
2022-09-23T04:05:55.137Z,11.77
2022-09-23T04:08:21.721Z,11.80
2022-09-23T04:10:51.749Z,13.27
2022-09-23T04:13:21.294Z,12.32
2022-09-23T04:15:50.112Z,11.63
2022-09-23T04:18:16.624Z,28.27
2022-09-23T04:20:43.293Z,11.63
2022-09-23T04:23:10.747Z,12.40
2022-09-23T04:28:13.004Z,13.02
2022-09-23T04:30:45.964Z,11.38
2022-09-23T04:33:13.759Z,11.40
2022-09-23T04:35:42.993Z,11.23
2022-09-23T04:38:11.990Z,11.65
2022-09-23T04:40:40.917Z,12.52
2022-09-23T04:43:13.426Z,14.40
2022-09-23T04:45:40.370Z,13.27
2022-09-23T04:48:07.249Z,11.98
2022-09-23T04:50:37.219Z,10.63
2022-09-23T04:53:04.973Z,15.48
2022-09-23T04:55:33.964Z,13.23
2022-09-23T04:58:01.026Z,12.07
2022-09-23T05:00:28.778Z,14.35
2022-09-23T05:02:55.317Z,12.43
2022-09-23T05:05:24.090Z,24.48
2022-09-23T05:07:53.713Z,14.82
2022-09-23T05:10:20.244Z,25.90
2022-09-23T05:12:46.855Z,24.23
2022-09-23T05:15:15.223Z,21.60
2022-09-23T05:17:44.636Z,20.45
2022-09-23T05:20:11.827Z,16.58
2022-09-23T05:22:38.985Z,16.70
2022-09-23T05:25:11.693Z,16.48
2022-09-23T05:27:40.142Z,19.13
2022-09-23T05:30:08.845Z,13.07
2022-09-23T05:32:35.735Z,13.43
2022-09-23T05:35:06.782Z,14.68
2022-09-23T05:37:37.685Z,13.40
2022-09-23T05:40:05.009Z,14.25
2022-09-23T05:42:34.839Z,15.32
2022-09-23T05:45:01.214Z,15.30
2022-09-23T05:47:27.640Z,20.52
2022-09-23T05:50:00.140Z,12.00
2022-09-23T05:52:27.522Z,15.68
2022-09-23T05:54:53.938Z,15.65
2022-09-23T05:57:21.356Z,13.25
2022-09-23T05:59:47.945Z,10.73
2022-09-23T06:02:15.143Z,15.60
2022-09-23T06:04:44.475Z,11.52
2022-09-23T06:07:10.931Z,14.18
2022-09-23T06:09:37.459Z,14.02
2022-09-23T06:12:05.091Z,12.43
2022-09-23T06:17:00.403Z,15.00
2022-09-23T06:19:26.810Z,14.15
2022-09-23T06:21:53.229Z,12.95
2022-09-23T06:24:22.916Z,12.68
2022-09-23T06:26:51.486Z,13.63
2022-09-23T06:29:18.331Z,10.57
2022-09-23T06:31:44.879Z,12.25
2022-09-23T06:34:13.887Z,11.80
2022-09-23T06:36:44.866Z,14.15
2022-09-23T06:39:16.858Z,11.60
2022-09-23T06:41:45.079Z,11.43
2022-09-23T06:44:11.613Z,12.20
2022-09-23T06:46:38.152Z,12.13
2022-09-23T06:49:04.642Z,14.32
2022-09-23T06:51:33.379Z,13.20
2022-09-23T06:53:59.858Z,15.32
2022-09-23T06:56:28.702Z,13.23
2022-09-23T06:58:55.075Z,13.52
2022-09-23T07:01:22.265Z,10.85
2022-09-23T07:03:48.958Z,10.20
2022-09-23T07:06:15.831Z,12.63
2022-09-23T07:08:44.794Z,11.98
2022-09-23T07:11:13.049Z,13.68
2022-09-23T07:13:41.155Z,12.82
2022-09-23T07:16:09.362Z,20.52
2022-09-23T07:18:37.326Z,15.70
2022-09-23T07:21:15.832Z,11.07
2022-09-23T07:23:44.107Z,11.93
2022-09-23T07:26:10.847Z,10.93
2022-09-23T07:28:39.497Z,15.57
2022-09-23T07:31:08.545Z,13.77
2022-09-23T07:33:39.763Z,13.90
2022-09-23T07:36:08.968Z,14.18
2022-09-23T07:38:38.691Z,10.88
2022-09-23T07:41:11.482Z,11.70
2022-09-23T07:43:39.673Z,11.40
2022-09-23T07:46:10.984Z,19.88
2022-09-23T07:48:38.584Z,14.85
2022-09-23T07:51:20.235Z,11.60
2022-09-23T07:53:49.256Z,10.20
2022-09-23T07:56:15.847Z,14.95
2022-09-23T07:58:42.320Z,15.80
2022-09-23T08:01:10.234Z,12.53
2022-09-23T08:03:37.383Z,10.52
2022-09-23T08:06:09.681Z,11.40
2022-09-23T08:08:40.296Z,9.88
2022-09-23T08:11:09.850Z,9.15
2022-09-23T08:13:36.529Z,11.80
2022-09-23T08:16:09.156Z,10.65
2022-09-23T08:18:36.081Z,12.55
2022-09-23T08:21:05.426Z,10.35
2022-09-23T08:23:33.476Z,12.80
2022-09-23T08:26:02.218Z,11.60
2022-09-23T08:28:28.755Z,11.02
2022-09-23T08:30:55.696Z,12.77
2022-09-23T08:33:23.608Z,12.02
2022-09-23T08:35:51.055Z,11.85
2022-09-23T08:38:17.588Z,8.20
2022-09-23T08:40:48.413Z,13.40
2022-09-23T08:43:28.092Z,9.88
2022-09-23T08:45:57.263Z,9.60
2022-09-23T08:48:48.382Z,9.05
2022-09-23T08:51:21.880Z,13.30
2022-09-23T08:53:48.315Z,9.63
2022-09-23T08:56:19.559Z,11.17
2022-09-23T08:58:56.371Z,10.85
2022-09-23T09:01:46.624Z,9.68
2022-09-23T09:04:40.276Z,7.75
2022-09-23T09:07:31.903Z,8.65
2022-09-23T09:10:06.537Z,9.40
2022-09-23T09:12:47.070Z,11.65
2022-09-23T09:15:20.138Z,9.45
2022-09-23T09:18:03.944Z,18.65
2022-09-23T09:20:36.476Z,11.75
2022-09-23T09:23:23.125Z,12.13
2022-09-23T09:25:55.185Z,11.15
2022-09-23T09:28:59.105Z,11.70
2022-09-23T09:31:36.840Z,10.57
2022-09-23T09:34:26.286Z,10.18
2022-09-23T09:37:07.394Z,8.95
2022-09-23T09:39:35.332Z,7.90
2022-09-23T09:42:03.368Z,9.93
2022-09-23T09:44:42.400Z,8.80
2022-09-23T09:47:46.176Z,9.25
2022-09-23T09:50:22.195Z,10.50
2022-09-23T09:52:48.932Z,9.68
2022-09-23T09:55:28.826Z,11.93
2022-09-23T09:58:05.163Z,11.05
2022-09-23T10:00:33.776Z,8.35
2022-09-23T10:03:25.337Z,11.57
2022-09-23T10:05:54.543Z,7.72
2022-09-23T10:08:24.304Z,10.48
2022-09-23T10:11:03.814Z,7.93
2022-09-23T10:13:33.615Z,8.77
2022-09-23T10:16:03.926Z,7.22
2022-09-23T10:18:49.988Z,8.57
2022-09-23T10:21:23.086Z,11.32
2022-09-23T10:23:58.000Z,8.67
2022-09-23T10:26:56.691Z,10.30
2022-09-23T10:29:37.107Z,10.32
2022-09-23T10:32:20.581Z,11.07
2022-09-23T10:35:14.904Z,8.40
2022-09-23T10:37:48.505Z,11.25
2022-09-23T10:40:38.806Z,7.05
2022-09-23T10:43:42.895Z,10.10
2022-09-23T10:46:39.060Z,7.00
2022-09-23T10:49:31.121Z,7.43
2022-09-23T10:52:27.707Z,7.85
2022-09-23T10:55:16.177Z,10.77
2022-09-23T10:57:45.716Z,8.52
2022-09-23T11:00:41.006Z,8.63
2022-09-23T11:03:34.176Z,12.07
2022-09-23T11:06:29.725Z,9.70
2022-09-23T11:09:22.472Z,10.25
2022-09-23T11:11:58.548Z,11.15
2022-09-23T11:15:03.582Z,12.25
2022-09-23T11:17:51.626Z,13.25
2022-09-23T11:20:36.164Z,8.60
2022-09-23T11:23:11.996Z,9.07
2022-09-23T11:25:56.639Z,10.65
2022-09-23T11:28:53.797Z,11.65
2022-09-23T11:31:45.513Z,9.05
2022-09-23T11:34:17.638Z,8.02
2022-09-23T11:36:54.168Z,10.50
2022-09-23T11:39:26.670Z,8.52
2022-09-23T11:41:55.690Z,10.75
2022-09-23T11:44:35.661Z,10.55
2022-09-23T11:47:08.768Z,9.50
2022-09-23T11:50:12.402Z,15.00
2022-09-23T11:52:58.688Z,8.52
2022-09-23T11:55:33.026Z,9.95
2022-09-23T11:58:17.016Z,9.98
2022-09-23T12:01:01.385Z,7.22
2022-09-23T12:03:44.188Z,8.32
2022-09-23T12:06:16.431Z,9.02
2022-09-23T12:08:43.523Z,8.07
2022-09-23T12:13:56.308Z,10.10
2022-09-23T12:16:42.435Z,9.68
2022-09-23T12:19:39.722Z,10.80
2022-09-23T12:22:25.676Z,10.25
2022-09-23T12:25:26.664Z,9.27
2022-09-23T12:28:00.474Z,13.00
2022-09-23T12:30:31.235Z,12.02
2022-09-23T12:33:24.671Z,12.70
2022-09-23T12:36:04.753Z,12.82
2022-09-23T12:38:38.191Z,7.80
2022-09-23T12:41:23.395Z,8.25
2022-09-23T12:43:57.614Z,12.63
2022-09-23T12:46:27.277Z,12.43
2022-09-23T12:49:03.537Z,9.20
2022-09-23T12:51:35.133Z,9.90
2022-09-23T12:54:04.643Z,16.35
2022-09-23T12:56:38.551Z,9.13
2022-09-23T12:59:17.201Z,8.70
2022-09-23T13:01:47.171Z,10.27
2022-09-23T13:04:47.837Z,11.18
2022-09-23T13:07:26.825Z,10.63
2022-09-23T13:10:08.993Z,13.52
2022-09-23T13:12:39.502Z,10.48
2022-09-23T13:15:16.863Z,11.68
2022-09-23T13:17:43.527Z,8.27
2022-09-23T13:20:18.864Z,10.43
2022-09-23T13:22:54.269Z,8.60
2022-09-23T13:25:33.619Z,7.97
2022-09-23T13:28:21.308Z,8.55
2022-09-23T13:30:52.026Z,7.72
2022-09-23T13:33:39.955Z,10.20
2022-09-23T13:36:13.096Z,9.07
2022-09-23T13:38:39.657Z,10.63
2022-09-23T13:41:19.007Z,7.45
2022-09-23T13:43:55.298Z,8.10
2022-09-23T13:46:24.474Z,12.43
2022-09-23T13:48:54.663Z,13.43
2022-09-23T13:51:32.984Z,7.72
2022-09-23T13:54:01.138Z,10.15
2022-09-23T13:56:33.251Z,7.47
2022-09-23T13:59:22.650Z,9.15
2022-09-23T14:01:49.161Z,7.00
2022-09-23T14:04:26.247Z,8.65
2022-09-23T14:06:56.125Z,8.75
2022-09-23T14:09:27.460Z,10.02
2022-09-23T14:11:56.838Z,10.80
2022-09-23T14:14:23.726Z,8.10
2022-09-23T14:16:51.690Z,7.95
2022-09-23T14:19:22.952Z,10.25
2022-09-23T14:21:56.469Z,7.50
2022-09-23T14:24:24.866Z,7.07
2022-09-23T14:27:06.773Z,10.00
2022-09-23T14:29:42.607Z,9.57
2022-09-23T14:32:22.733Z,12.52
2022-09-23T14:34:53.570Z,6.80
2022-09-23T14:37:43.844Z,12.27
2022-09-23T14:40:22.236Z,10.52
2022-09-23T14:42:59.522Z,8.88
2022-09-23T14:45:30.221Z,12.70
2022-09-23T14:48:01.069Z,7.32
2022-09-23T14:50:36.806Z,9.73
2022-09-23T14:53:04.653Z,12.85
2022-09-23T14:55:35.310Z,10.98
2022-09-23T14:58:04.814Z,7.80
2022-09-23T15:00:31.894Z,9.52
2022-09-23T15:03:03.717Z,7.60
2022-09-23T15:05:58.755Z,11.52
2022-09-23T15:08:27.647Z,9.95
2022-09-23T15:10:54.851Z,9.05
2022-09-23T15:13:33.831Z,9.35
2022-09-23T15:16:04.062Z,11.43
2022-09-23T15:18:34.859Z,8.68
2022-09-23T15:21:10.421Z,8.70
2022-09-23T15:23:46.036Z,7.68
2022-09-23T15:26:20.644Z,9.55
2022-09-23T15:28:53.244Z,11.95
2022-09-23T15:31:22.199Z,14.77
2022-09-23T15:33:50.967Z,11.77
2022-09-23T15:36:26.357Z,10.63
2022-09-23T15:38:54.501Z,12.18
2022-09-23T15:41:24.001Z,10.32
2022-09-23T15:43:51.543Z,10.20
2022-09-23T15:46:26.552Z,11.50
2022-09-23T15:49:05.767Z,10.93
2022-09-23T15:51:38.313Z,13.93
2022-09-23T15:54:14.044Z,11.23
2022-09-23T15:56:41.036Z,11.95
2022-09-23T15:59:07.540Z,9.60
2022-09-23T16:01:37.127Z,11.95
2022-09-23T16:04:06.047Z,10.40
2022-09-23T16:06:36.516Z,11.45
2022-09-23T16:09:14.273Z,10.20
2022-09-23T16:11:47.484Z,14.55
2022-09-23T16:14:19.125Z,12.85
2022-09-23T16:16:47.993Z,15.95
2022-09-23T16:19:15.665Z,13.13
2022-09-23T16:21:42.430Z,15.40
2022-09-23T16:24:17.098Z,11.18
2022-09-23T16:26:46.748Z,12.30
2022-09-23T16:29:14.037Z,11.60
2022-09-23T16:31:41.063Z,13.85
2022-09-23T16:34:09.428Z,13.13
2022-09-23T16:36:41.697Z,11.77
2022-09-23T16:39:13.079Z,13.70
2022-09-23T16:41:40.255Z,15.45
2022-09-23T16:46:37.267Z,13.20
2022-09-23T16:49:04.753Z,13.27
2022-09-23T16:51:38.672Z,11.40
2022-09-23T16:54:10.996Z,11.45
2022-09-23T16:56:46.643Z,16.95
2022-09-23T16:59:14.840Z,18.58
2022-09-23T17:02:02.421Z,11.00
2022-09-23T17:04:29.081Z,16.70
2022-09-23T17:06:57.611Z,11.95
2022-09-23T17:09:29.931Z,11.18
2022-09-23T17:12:29.474Z,11.10
2022-09-23T17:14:55.906Z,11.65
2022-09-23T17:17:25.948Z,13.47
2022-09-23T17:19:52.739Z,14.40
2022-09-23T17:22:19.178Z,15.85
2022-09-23T17:24:48.062Z,19.67
2022-09-23T17:27:17.409Z,14.88
2022-09-23T17:29:44.481Z,12.48
2022-09-23T17:32:11.230Z,13.70
2022-09-23T17:34:37.725Z,17.48
2022-09-23T17:37:04.297Z,15.45
2022-09-23T17:39:32.197Z,13.20
2022-09-23T17:41:58.907Z,13.27
2022-09-23T17:44:25.651Z,18.08
2022-09-23T17:46:53.656Z,16.23
2022-09-23T17:49:22.452Z,19.17
2022-09-23T17:51:49.899Z,13.30
2022-09-23T17:54:16.897Z,16.08
2022-09-23T17:56:44.293Z,15.35
2022-09-23T17:59:14.863Z,13.43
2022-09-23T18:01:41.307Z,15.02
2022-09-23T18:04:08.051Z,12.50
2022-09-23T18:06:37.297Z,14.27
2022-09-23T18:09:06.739Z,13.75
2022-09-23T18:11:38.672Z,14.00
2022-09-23T18:14:11.842Z,16.83
2022-09-23T18:16:41.284Z,17.17
2022-09-23T18:19:11.878Z,19.60
2022-09-23T18:21:41.528Z,15.32
2022-09-23T18:26:59.506Z,13.95
2022-09-23T18:29:26.115Z,19.42
2022-09-23T18:31:53.293Z,20.15
2022-09-23T18:34:20.410Z,15.23
2022-09-23T18:36:48.087Z,26.88
2022-09-23T18:39:14.997Z,17.50
2022-09-23T18:41:41.650Z,16.05
2022-09-23T18:44:09.834Z,17.70
2022-09-23T18:46:37.267Z,15.80
2022-09-23T18:49:22.769Z,14.23
2022-09-23T18:51:56.028Z,17.55
2022-09-23T18:54:27.889Z,15.88
2022-09-23T18:56:55.200Z,14.25
2022-09-23T19:01:57.129Z,14.73
2022-09-23T19:04:27.850Z,14.20
2022-09-23T19:06:56.417Z,13.63
2022-09-23T19:09:23.731Z,14.95
2022-09-23T19:11:52.339Z,18.63
2022-09-23T19:14:20.170Z,22.45
2022-09-23T19:16:48.995Z,14.50
2022-09-23T19:19:19.183Z,15.85
2022-09-23T19:21:46.220Z,15.32
2022-09-23T19:24:17.352Z,14.95
2022-09-23T19:26:45.036Z,16.23
2022-09-23T19:29:17.074Z,16.00
2022-09-23T19:31:44.396Z,15.30
2022-09-23T19:36:59.735Z,18.40
2022-09-23T19:39:31.283Z,18.63
2022-09-23T19:41:58.942Z,18.80
2022-09-23T19:44:27.021Z,28.63
2022-09-23T19:46:56.748Z,19.58
2022-09-23T19:49:25.126Z,24.63
2022-09-23T19:51:52.920Z,20.65
2022-09-23T19:54:21.021Z,21.77
2022-09-23T19:56:48.809Z,21.83
2022-09-23T19:59:18.871Z,23.33
2022-09-23T20:01:46.667Z,21.02
2022-09-23T20:06:40.937Z,21.70
2022-09-23T20:09:07.993Z,22.65
2022-09-23T20:11:35.204Z,20.45
2022-09-23T20:16:36.095Z,20.15
2022-09-23T20:19:04.538Z,21.75
2022-09-23T20:21:32.184Z,23.23
2022-09-23T20:23:59.286Z,26.48
2022-09-23T20:26:45.192Z,24.35
2022-09-23T20:29:13.278Z,25.73
2022-09-23T20:31:43.697Z,25.83
2022-09-23T20:34:11.912Z,28.65
2022-09-23T20:36:41.046Z,27.90
2022-09-23T20:39:09.497Z,31.55
2022-09-23T20:41:37.750Z,28.95
2022-09-23T20:44:07.388Z,31.00
2022-09-23T20:46:34.615Z,28.02
2022-09-23T20:49:01.877Z,27.50
2022-09-23T20:51:28.342Z,27.05
2022-09-23T20:53:55.059Z,29.30
2022-09-23T20:56:21.714Z,31.40
2022-09-23T20:58:50.376Z,33.92
2022-09-23T21:01:17.277Z,24.83
2022-09-23T21:03:45.755Z,26.20
2022-09-23T21:06:16.257Z,27.42
2022-09-23T21:08:44.398Z,28.30
2022-09-23T21:11:16.297Z,29.98
2022-09-23T21:13:47.282Z,31.05
2022-09-23T21:16:17.125Z,30.25
2022-09-23T21:18:44.811Z,30.90
2022-09-23T21:21:12.240Z,36.40
2022-09-23T21:23:39.168Z,29.50
2022-09-23T21:26:11.385Z,32.20
2022-09-23T21:28:40.182Z,35.75
2022-09-23T21:31:11.033Z,32.25
2022-09-23T21:33:37.843Z,31.23
2022-09-23T21:36:06.389Z,35.33
2022-09-23T21:38:37.616Z,32.38
2022-09-23T21:41:10.059Z,29.77
2022-09-23T21:43:38.532Z,31.42
2022-09-23T21:46:07.677Z,32.13
2022-09-23T21:48:41.062Z,29.70
2022-09-23T21:51:14.028Z,34.20
2022-09-23T21:53:41.739Z,34.00
2022-09-23T21:56:21.228Z,31.02
2022-09-23T21:58:48.565Z,33.35
2022-09-23T22:01:20.196Z,35.92
2022-09-23T22:03:55.066Z,36.80
2022-09-23T22:06:23.764Z,31.67
2022-09-23T22:08:53.599Z,32.75
2022-09-23T22:11:41.494Z,31.73
2022-09-23T22:14:10.990Z,33.13
2022-09-23T22:16:38.935Z,32.65
2022-09-23T22:19:08.922Z,33.47
2022-09-23T22:21:37.961Z,33.70
2022-09-23T22:24:09.697Z,33.22
2022-09-23T22:26:38.588Z,33.15
2022-09-23T22:29:25.127Z,41.50
2022-09-23T22:32:10.021Z,31.50
2022-09-23T22:34:52.813Z,38.22
2022-09-23T22:37:23.771Z,35.75
2022-09-23T22:39:50.161Z,33.03
2022-09-23T22:42:16.773Z,35.20
2022-09-23T22:44:43.408Z,31.88
2022-09-23T22:47:10.430Z,34.00
2022-09-23T22:49:37.270Z,32.90
2022-09-23T22:52:07.866Z,37.50
2022-09-23T22:54:35.276Z,39.33
2022-09-23T22:59:30.259Z,32.70
2022-09-23T23:01:59.093Z,32.53
2022-09-23T23:04:25.580Z,33.63
2022-09-23T23:06:52.143Z,41.03
2022-09-23T23:09:18.917Z,35.10
2022-09-23T23:11:45.895Z,35.08
2022-09-23T23:14:14.732Z,40.72
2022-09-23T23:16:41.982Z,36.47
2022-09-23T23:19:13.085Z,36.95
2022-09-23T23:21:43.090Z,39.33
2022-09-23T23:24:22.336Z,40.60
2022-09-23T23:26:49.923Z,39.70
2022-09-23T23:29:18.070Z,35.40
2022-09-23T23:31:44.968Z,36.78
2022-09-23T23:34:18.459Z,36.28
2022-09-23T23:36:45.850Z,33.85
2022-09-23T23:41:39.616Z,36.38
2022-09-23T23:44:07.697Z,40.58
2022-09-23T23:46:36.541Z,36.03
2022-09-23T23:49:06.768Z,37.85
2022-09-23T23:51:33.303Z,39.63
2022-09-23T23:53:59.778Z,42.70
2022-09-23T23:56:27.643Z,38.50
2022-09-23T23:58:59.415Z,36.08
